createdAt,value
2018-06-19T00:00:40.330Z,17.76
2018-06-19T00:03:11.046Z,17.65
2018-06-19T00:05:41.737Z,17.60
2018-06-19T00:08:12.366Z,17.60
2018-06-19T00:10:43.007Z,17.59
2018-06-19T00:13:13.735Z,17.62
2018-06-19T00:15:44.397Z,17.48
2018-06-19T00:18:20.178Z,17.42
2018-06-19T00:20:51.843Z,17.38
2018-06-19T00:23:22.523Z,17.41
2018-06-19T00:25:53.180Z,17.35
2018-06-19T00:28:23.968Z,17.33
2018-06-19T00:30:54.622Z,17.26
2018-06-19T00:33:25.246Z,17.24
2018-06-19T00:35:56.055Z,17.25
2018-06-19T00:38:26.685Z,17.14
2018-06-19T00:40:57.382Z,17.10
2018-06-19T00:43:28.041Z,17.03
2018-06-19T00:45:59.856Z,17.08
2018-06-19T00:48:30.533Z,17.01
2018-06-19T00:51:01.332Z,16.99
2018-06-19T00:53:31.999Z,16.82
2018-06-19T00:56:19.451Z,16.79
2018-06-19T00:58:50.076Z,16.76
2018-06-19T01:01:20.853Z,16.73
2018-06-19T01:03:51.469Z,16.74
2018-06-19T01:06:22.099Z,16.68
2018-06-19T01:08:52.744Z,16.65
2018-06-19T01:11:23.364Z,16.69
2018-06-19T01:13:54.094Z,16.69
2018-06-19T01:16:24.735Z,16.55
2018-06-19T01:18:55.429Z,16.51
2018-06-19T01:21:26.084Z,16.56
2018-06-19T01:23:56.715Z,16.52
2018-06-19T01:26:27.371Z,16.50
2018-06-19T01:28:58.085Z,16.41
2018-06-19T01:31:28.743Z,16.53
2018-06-19T01:33:59.430Z,16.41
2018-06-19T01:36:30.125Z,16.40
2018-06-19T01:39:01.396Z,16.44
2018-06-19T01:41:32.012Z,16.47
2018-06-19T01:44:02.853Z,16.45
2018-06-19T01:46:33.454Z,16.39
2018-06-19T01:49:04.135Z,16.39
2018-06-19T01:51:34.420Z,16.30
2018-06-19T01:54:04.937Z,16.24
2018-06-19T01:56:35.771Z,16.34
2018-06-19T01:59:06.715Z,16.42
2018-06-19T02:01:37.349Z,16.29
2018-06-19T02:04:08.075Z,16.27
2018-06-19T02:06:38.719Z,16.30
2018-06-19T02:09:09.916Z,16.30
2018-06-19T02:11:40.549Z,16.43
2018-06-19T02:14:11.218Z,16.36
2018-06-19T02:16:41.855Z,16.45
2018-06-19T02:19:12.484Z,16.48
2018-06-19T02:21:43.228Z,16.39
2018-06-19T02:24:13.936Z,16.42
2018-06-19T02:26:44.559Z,16.43
2018-06-19T02:29:15.146Z,16.41
2018-06-19T02:31:45.818Z,16.33
2018-06-19T02:34:16.464Z,16.31
2018-06-19T02:36:47.659Z,16.45
2018-06-19T02:39:18.305Z,16.40
2018-06-19T02:41:48.962Z,16.37
2018-06-19T02:44:19.601Z,16.42
2018-06-19T02:46:50.300Z,16.41
2018-06-19T02:49:20.950Z,16.49
2018-06-19T02:51:51.845Z,16.41
2018-06-19T02:54:22.510Z,16.35
2018-06-19T02:56:53.196Z,16.36
2018-06-19T02:59:23.810Z,16.35
2018-06-19T03:01:54.506Z,16.32
2018-06-19T03:04:25.144Z,16.26
2018-06-19T03:06:55.951Z,16.28
2018-06-19T03:09:26.606Z,16.28
2018-06-19T03:11:57.253Z,16.38
2018-06-19T03:14:27.873Z,16.37
2018-06-19T03:16:58.529Z,16.45
2018-06-19T03:19:29.153Z,16.31
2018-06-19T03:21:59.834Z,16.35
2018-06-19T03:24:30.441Z,16.23
2018-06-19T03:27:01.096Z,16.23
2018-06-19T03:29:31.848Z,16.28
2018-06-19T03:32:02.537Z,16.41
2018-06-19T03:34:33.176Z,16.38
2018-06-19T03:37:03.844Z,16.32
2018-06-19T03:39:34.542Z,16.38
2018-06-19T03:42:05.252Z,16.26
2018-06-19T03:44:35.904Z,16.39
2018-06-19T03:47:06.717Z,16.35
2018-06-19T03:49:37.368Z,16.30
2018-06-19T03:52:08.165Z,16.26
2018-06-19T03:54:38.784Z,16.24
2018-06-19T03:57:09.424Z,16.21
2018-06-19T03:59:40.100Z,16.28
2018-06-19T04:02:10.794Z,16.22
2018-06-19T04:04:41.511Z,16.22
2018-06-19T04:07:12.160Z,16.20
2018-06-19T04:09:42.812Z,16.19
2018-06-19T04:12:13.492Z,16.13
2018-06-19T04:14:44.592Z,16.19
2018-06-19T04:17:22.885Z,16.16
2018-06-19T04:19:54.036Z,16.18
2018-06-19T04:22:25.155Z,16.10
2018-06-19T04:24:55.829Z,16.17
2018-06-19T04:27:26.674Z,16.26
2018-06-19T04:29:57.330Z,16.21
2018-06-19T04:32:27.991Z,16.17
2018-06-19T04:34:58.628Z,16.20
2018-06-19T04:37:29.248Z,16.17
2018-06-19T04:39:59.922Z,16.27
2018-06-19T04:42:30.595Z,16.20
2018-06-19T04:45:01.265Z,16.15
2018-06-19T04:47:31.932Z,16.13
2018-06-19T04:50:02.563Z,16.08
2018-06-19T04:52:33.172Z,16.06
2018-06-19T04:55:03.831Z,16.05
2018-06-19T04:57:34.524Z,16.13
2018-06-19T05:00:05.725Z,16.18
2018-06-19T05:02:36.539Z,16.09
2018-06-19T05:05:07.285Z,16.19
2018-06-19T05:07:37.905Z,16.22
2018-06-19T05:10:08.724Z,16.26
2018-06-19T05:12:39.466Z,16.20
2018-06-19T05:15:10.330Z,16.11
2018-06-19T05:17:40.950Z,16.13
2018-06-19T05:20:11.651Z,16.13
2018-06-19T05:22:42.301Z,16.18
2018-06-19T05:25:13.603Z,16.34
2018-06-19T05:27:44.204Z,16.34
2018-06-19T05:30:14.855Z,16.27
2018-06-19T05:32:45.642Z,16.26
2018-06-19T05:35:16.371Z,16.15
2018-06-19T05:37:47.105Z,16.23
2018-06-19T05:40:17.781Z,16.22
2018-06-19T05:42:48.510Z,16.30
2018-06-19T05:45:19.173Z,16.32
2018-06-19T05:47:49.890Z,16.27
2018-06-19T05:50:20.594Z,16.18
2018-06-19T05:52:51.276Z,16.21
2018-06-19T05:55:22.876Z,16.24
2018-06-19T05:57:53.524Z,16.22
2018-06-19T06:00:23.836Z,16.28
2018-06-19T06:02:54.391Z,16.35
2018-06-19T06:05:25.019Z,16.35
2018-06-19T06:07:55.707Z,16.31
2018-06-19T06:10:26.414Z,16.30
2018-06-19T06:12:57.087Z,16.22
2018-06-19T06:15:27.747Z,16.24
2018-06-19T06:17:58.428Z,16.25
2018-06-19T06:20:29.239Z,16.25
2018-06-19T06:22:59.891Z,16.30
2018-06-19T06:25:30.552Z,16.28
2018-06-19T06:28:01.247Z,16.31
2018-06-19T06:30:31.874Z,16.39
2018-06-19T06:33:02.525Z,16.39
2018-06-19T06:35:33.163Z,16.60
2018-06-19T06:38:03.849Z,16.60
2018-06-19T06:40:34.478Z,16.60
2018-06-19T06:43:05.209Z,16.64
2018-06-19T06:45:35.840Z,16.70
2018-06-19T06:48:06.520Z,16.58
2018-06-19T06:50:37.144Z,16.68
2018-06-19T06:53:07.903Z,16.66
2018-06-19T06:55:38.525Z,16.70
2018-06-19T06:58:09.261Z,16.68
2018-06-19T07:00:39.919Z,16.75
2018-06-19T07:03:10.639Z,16.72
2018-06-19T07:05:41.283Z,16.78
2018-06-19T07:08:12.090Z,16.74
2018-06-19T07:10:42.672Z,16.76
2018-06-19T07:13:13.422Z,16.81
2018-06-19T07:15:44.080Z,16.75
2018-06-19T07:18:14.823Z,16.73
2018-06-19T07:20:45.468Z,16.73
2018-06-19T07:23:16.127Z,16.75
2018-06-19T07:25:46.819Z,16.74
2018-06-19T07:28:17.469Z,16.74
2018-06-19T07:30:48.168Z,16.77
2018-06-19T07:33:18.868Z,16.76
2018-06-19T07:35:49.543Z,16.92
2018-06-19T07:38:20.180Z,16.91
2018-06-19T07:40:50.872Z,16.86
2018-06-19T07:43:21.508Z,16.98
2018-06-19T07:45:52.281Z,17.08
2018-06-19T07:48:22.929Z,17.03
2018-06-19T07:50:53.590Z,17.10
2018-06-19T07:53:24.221Z,17.13
2018-06-19T07:55:54.918Z,17.15
2018-06-19T07:58:25.538Z,17.11
2018-06-19T08:00:56.200Z,17.17
2018-06-19T08:03:26.811Z,17.12
2018-06-19T08:05:57.449Z,17.25
2018-06-19T08:08:28.814Z,17.25
2018-06-19T08:10:59.487Z,17.20
2018-06-19T08:13:30.237Z,17.22
2018-06-19T08:16:00.899Z,17.28
2018-06-19T08:18:31.602Z,17.23
2018-06-19T08:21:02.208Z,17.24
2018-06-19T08:23:32.872Z,17.38
2018-06-19T08:26:18.468Z,17.35
2018-06-19T08:28:49.170Z,17.33
2018-06-19T08:31:19.835Z,17.39
2018-06-19T08:33:50.460Z,17.44
2018-06-19T08:36:21.185Z,17.42
2018-06-19T08:38:51.815Z,17.46
2018-06-19T08:41:22.470Z,17.30
2018-06-19T08:43:53.125Z,17.29
2018-06-19T08:46:23.764Z,17.19
2018-06-19T08:48:54.511Z,17.15
2018-06-19T08:51:25.181Z,17.24
2018-06-19T08:53:55.885Z,17.26
2018-06-19T08:56:26.551Z,17.25
2018-06-19T08:58:57.198Z,17.44
2018-06-19T09:01:29.856Z,17.50
2018-06-19T09:04:00.726Z,17.42
2018-06-19T09:06:31.392Z,17.43
2018-06-19T09:09:01.791Z,17.53
2018-06-19T09:11:32.313Z,17.51
2018-06-19T09:14:03.019Z,17.55
2018-06-19T09:16:33.671Z,17.54
2018-06-19T09:19:04.332Z,17.54
2018-06-19T09:21:34.966Z,17.54
2018-06-19T09:24:05.658Z,17.57
2018-06-19T09:26:36.275Z,17.57
2018-06-19T09:29:07.073Z,17.61
2018-06-19T09:31:37.788Z,17.53
2018-06-19T09:34:08.447Z,17.57
2018-06-19T09:36:39.397Z,17.62
2018-06-19T09:39:12.312Z,17.65
2018-06-19T09:41:44.243Z,17.73
2018-06-19T09:44:15.032Z,17.73
2018-06-19T09:46:45.715Z,17.63
2018-06-19T09:49:16.418Z,17.59
2018-06-19T09:51:47.159Z,17.67
2018-06-19T09:54:17.793Z,17.75
2018-06-19T09:56:48.525Z,17.84
2018-06-19T09:59:19.315Z,17.98
2018-06-19T10:01:50.122Z,18.12
2018-06-19T10:04:20.908Z,18.25
2018-06-19T10:06:51.616Z,18.25
2018-06-19T10:09:22.478Z,18.24
2018-06-19T10:11:53.202Z,18.29
2018-06-19T10:14:23.898Z,18.39
2018-06-19T10:17:01.206Z,18.36
2018-06-19T10:19:31.904Z,18.40
2018-06-19T10:22:02.518Z,18.39
2018-06-19T10:24:33.463Z,18.36
2018-06-19T10:27:04.180Z,18.48
2018-06-19T10:29:34.904Z,18.49
2018-06-19T10:32:05.774Z,18.47
2018-06-19T10:34:36.421Z,18.48
2018-06-19T10:37:07.176Z,18.48
2018-06-19T10:39:37.832Z,18.58
2018-06-19T10:42:08.497Z,18.70
2018-06-19T10:44:39.150Z,18.71
2018-06-19T10:47:09.871Z,18.71
2018-06-19T10:49:40.581Z,18.76
2018-06-19T10:52:11.253Z,18.86
2018-06-19T10:54:41.888Z,18.98
2018-06-19T10:57:12.573Z,19.03
2018-06-19T10:59:43.220Z,19.10
2018-06-19T11:02:13.895Z,19.24
2018-06-19T11:04:44.556Z,19.24
2018-06-19T11:07:15.272Z,19.17
2018-06-19T11:09:45.907Z,19.26
2018-06-19T11:12:16.554Z,19.32
2018-06-19T11:14:47.181Z,19.32
2018-06-19T11:17:17.823Z,19.30
2018-06-19T11:19:49.002Z,19.39
2018-06-19T11:22:19.734Z,19.48
2018-06-19T11:24:50.356Z,19.56
2018-06-19T11:27:21.068Z,19.67
2018-06-19T11:29:51.708Z,19.91
2018-06-19T11:32:22.418Z,19.95
2018-06-19T11:34:53.136Z,19.95
2018-06-19T11:37:24.278Z,20.01
2018-06-19T11:39:54.988Z,19.88
2018-06-19T11:42:25.697Z,19.80
2018-06-19T11:44:56.350Z,20.05
2018-06-19T11:47:26.734Z,19.97
2018-06-19T11:49:57.307Z,20.10
2018-06-19T11:52:28.060Z,20.16
2018-06-19T11:54:58.760Z,20.16
2018-06-19T11:57:29.473Z,20.17
2018-06-19T12:00:00.140Z,20.09
2018-06-19T12:02:30.821Z,20.06
2018-06-19T12:05:01.481Z,20.10
2018-06-19T12:07:37.324Z,20.38
2018-06-19T12:10:08.406Z,20.44
2018-06-19T12:12:39.780Z,20.55
2018-06-19T12:15:10.513Z,20.53
2018-06-19T12:17:41.223Z,20.73
2018-06-19T12:20:11.973Z,20.65
2018-06-19T12:22:42.622Z,20.69
2018-06-19T12:25:13.271Z,20.80
2018-06-19T12:27:43.977Z,20.81
2018-06-19T12:30:14.651Z,20.84
2018-06-19T12:32:45.262Z,20.86
2018-06-19T12:35:15.935Z,20.99
2018-06-19T12:37:46.578Z,21.05
2018-06-19T12:40:17.216Z,21.06
2018-06-19T12:42:47.866Z,21.21
2018-06-19T12:45:18.515Z,21.36
2018-06-19T12:47:49.176Z,21.27
2018-06-19T12:50:38.740Z,21.24
2018-06-19T12:53:26.178Z,21.40
2018-06-19T12:56:15.327Z,21.51
2018-06-19T12:58:45.932Z,21.66
2018-06-19T13:01:16.611Z,21.78
2018-06-19T13:04:03.958Z,21.84
2018-06-19T13:06:37.016Z,22.03
2018-06-19T13:09:09.272Z,22.16
2018-06-19T13:11:39.932Z,22.31
2018-06-19T13:14:38.089Z,22.26
2018-06-19T13:17:25.580Z,22.40
2018-06-19T13:20:13.099Z,22.43
2018-06-19T13:22:43.764Z,22.45
2018-06-19T13:25:14.407Z,22.48
2018-06-19T13:27:45.091Z,22.41
2018-06-19T13:30:32.551Z,22.43
2018-06-19T13:33:03.226Z,22.36
2018-06-19T13:35:33.990Z,22.44
2018-06-19T13:38:04.669Z,22.45
2018-06-19T13:41:18.750Z,22.58
2018-06-19T13:44:08.066Z,22.62
2018-06-19T13:46:38.703Z,22.68
2018-06-19T13:49:09.492Z,22.70
2018-06-19T13:51:40.115Z,22.71
2018-06-19T13:54:10.858Z,22.69
2018-06-19T13:57:31.360Z,22.92
2018-06-19T14:00:04.033Z,23.18
2018-06-19T14:02:34.696Z,23.56
2018-06-19T14:05:06.153Z,23.75
2018-06-19T14:07:43.973Z,23.83
2018-06-19T14:10:31.685Z,23.57
2018-06-19T14:13:03.611Z,23.22
2018-06-19T14:15:37.740Z,23.11
2018-06-19T14:18:09.044Z,23.23
2018-06-19T14:20:40.244Z,23.30
2018-06-19T14:23:11.255Z,23.32
2018-06-19T14:25:42.072Z,23.35
2018-06-19T14:28:12.763Z,23.38
2018-06-19T14:30:43.429Z,23.34
2018-06-19T14:33:14.221Z,23.42
2018-06-19T14:35:44.739Z,23.28
2018-06-19T14:38:15.361Z,23.24
2018-06-19T14:40:46.021Z,23.02
2018-06-19T14:43:16.654Z,22.91
2018-06-19T14:45:47.381Z,23.00
2018-06-19T14:48:18.007Z,22.83
2018-06-19T14:50:48.667Z,22.74
2018-06-19T14:53:19.281Z,22.64
2018-06-19T14:55:49.959Z,22.52
2018-06-19T14:58:20.608Z,22.55
2018-06-19T15:00:51.257Z,22.52
2018-06-19T15:03:21.892Z,22.55
2018-06-19T15:05:52.547Z,22.61
2018-06-19T15:08:23.196Z,22.76
2018-06-19T15:10:53.863Z,22.63
2018-06-19T15:13:24.524Z,22.65
2018-06-19T15:15:55.238Z,22.59
2018-06-19T15:18:25.955Z,22.61
2018-06-19T15:20:56.587Z,22.63
2018-06-19T15:23:27.432Z,22.60
2018-06-19T15:25:58.092Z,22.69
2018-06-19T15:28:28.733Z,22.64
2018-06-19T15:30:59.348Z,22.54
2018-06-19T15:33:30.016Z,22.48
2018-06-19T15:36:00.644Z,22.41
2018-06-19T15:38:31.307Z,22.58
2018-06-19T15:41:01.997Z,22.60
2018-06-19T15:43:32.616Z,22.61
2018-06-19T15:46:03.266Z,22.67
2018-06-19T15:48:33.978Z,22.78
2018-06-19T15:51:04.581Z,22.83
2018-06-19T15:53:35.230Z,22.94
2018-06-19T15:56:05.853Z,23.08
2018-06-19T15:58:36.502Z,23.17
2018-06-19T16:01:07.235Z,23.21
2018-06-19T16:03:37.902Z,22.97
2018-06-19T16:06:08.580Z,22.95
2018-06-19T16:08:39.375Z,22.88
2018-06-19T16:11:10.066Z,22.80
2018-06-19T16:13:40.910Z,22.68
2018-06-19T16:16:11.636Z,22.65
2018-06-19T16:18:42.606Z,22.56
2018-06-19T16:21:13.289Z,22.60
2018-06-19T16:23:43.936Z,22.72
2018-06-19T16:26:14.626Z,22.65
2018-06-19T16:28:45.280Z,22.58
2018-06-19T16:31:15.962Z,22.59
2018-06-19T16:33:46.579Z,22.57
2018-06-19T16:36:17.300Z,22.45
2018-06-19T16:38:47.950Z,22.48
2018-06-19T16:41:18.640Z,22.48
2018-06-19T16:43:49.308Z,22.57
2018-06-19T16:46:19.994Z,22.47
2018-06-19T16:48:50.642Z,22.39
2018-06-19T16:51:21.280Z,22.36
2018-06-19T16:53:51.925Z,22.38
2018-06-19T16:56:22.600Z,22.39
2018-06-19T16:58:53.274Z,22.41
2018-06-19T17:01:24.024Z,22.34
2018-06-19T17:03:54.672Z,22.20
2018-06-19T17:06:25.344Z,22.13
2018-06-19T17:08:56.024Z,22.08
2018-06-19T17:11:26.669Z,22.08
2018-06-19T17:13:57.364Z,22.09
2018-06-19T17:16:28.029Z,22.11
2018-06-19T17:18:58.705Z,22.10
2018-06-19T17:21:29.393Z,22.11
2018-06-19T17:24:00.183Z,22.07
2018-06-19T17:26:30.864Z,22.01
2018-06-19T17:29:01.632Z,22.05
2018-06-19T17:31:32.241Z,21.97
2018-06-19T17:34:02.913Z,21.98
2018-06-19T17:36:33.533Z,21.91
2018-06-19T17:39:04.985Z,21.90
2018-06-19T17:41:35.759Z,21.87
2018-06-19T17:44:06.543Z,21.81
2018-06-19T17:46:37.186Z,21.80
2018-06-19T17:49:07.893Z,21.82
2018-06-19T17:51:38.535Z,21.78
2018-06-19T17:54:09.385Z,21.82
2018-06-19T17:56:40.083Z,21.76
2018-06-19T17:59:10.765Z,21.72
2018-06-19T18:01:41.422Z,21.60
2018-06-19T18:04:12.113Z,21.54
2018-06-19T18:06:42.738Z,21.49
2018-06-19T18:09:13.467Z,21.50
2018-06-19T18:11:44.125Z,21.56
2018-06-19T18:14:14.823Z,21.58
2018-06-19T18:16:45.455Z,21.47
2018-06-19T18:19:16.123Z,21.39
2018-06-19T18:21:46.894Z,21.37
2018-06-19T18:24:17.561Z,21.34
2018-06-19T18:26:48.323Z,21.34
2018-06-19T18:29:18.964Z,21.31
2018-06-19T18:31:49.800Z,21.32
2018-06-19T18:34:20.476Z,21.32
2018-06-19T18:36:51.164Z,21.27
2018-06-19T18:39:21.823Z,21.23
2018-06-19T18:41:52.526Z,21.26
2018-06-19T18:44:23.211Z,21.23
2018-06-19T18:46:53.872Z,21.15
2018-06-19T18:49:24.675Z,21.22
2018-06-19T18:51:55.469Z,21.19
2018-06-19T18:54:26.108Z,21.12
2018-06-19T18:56:56.800Z,21.12
2018-06-19T18:59:27.469Z,21.11
2018-06-19T19:01:58.196Z,21.18
2018-06-19T19:04:28.874Z,21.05
2018-06-19T19:06:59.544Z,21.03
2018-06-19T19:09:30.205Z,21.07
2018-06-19T19:12:00.860Z,21.07
2018-06-19T19:14:36.762Z,21.11
2018-06-19T19:17:12.969Z,21.08
2018-06-19T19:19:43.634Z,20.96
2018-06-19T19:22:14.292Z,20.99
2018-06-19T19:24:44.927Z,20.96
2018-06-19T19:27:20.703Z,20.91
2018-06-19T19:29:52.359Z,20.87
2018-06-19T19:32:23.002Z,20.85
2018-06-19T19:34:53.657Z,20.87
2018-06-19T19:37:29.469Z,20.86
2018-06-19T19:40:00.079Z,20.81
2018-06-19T19:42:30.721Z,20.77
2018-06-19T19:45:01.375Z,20.74
2018-06-19T19:47:37.168Z,20.72
2018-06-19T19:50:07.913Z,20.70
2018-06-19T19:53:09.258Z,20.67
2018-06-19T19:55:44.971Z,20.65
2018-06-19T19:58:20.920Z,20.62
2018-06-19T20:00:51.684Z,20.60
2018-06-19T20:03:53.338Z,20.60
2018-06-19T20:06:23.995Z,20.58
2018-06-19T20:08:54.613Z,20.59
2018-06-19T20:11:25.266Z,20.58
2018-06-19T20:13:56.016Z,20.54
2018-06-19T20:16:26.698Z,20.57
2018-06-19T20:18:57.565Z,20.56
2018-06-19T20:21:28.290Z,20.54
2018-06-19T20:23:58.962Z,20.53
2018-06-19T20:26:29.607Z,20.52
2018-06-19T20:29:00.241Z,20.51
2018-06-19T20:31:30.911Z,20.50
2018-06-19T20:34:01.623Z,20.54
2018-06-19T20:36:32.273Z,20.63
2018-06-19T20:39:03.008Z,20.67
2018-06-19T20:41:33.739Z,20.69
2018-06-19T20:44:04.653Z,20.71
2018-06-19T20:46:35.393Z,20.70
2018-06-19T20:49:06.131Z,20.70
2018-06-19T20:51:36.799Z,20.71
2018-06-19T20:54:07.511Z,20.70
2018-06-19T20:56:38.157Z,20.71
2018-06-19T20:59:08.887Z,20.71
2018-06-19T21:01:39.655Z,20.69
2018-06-19T21:04:10.542Z,20.68
2018-06-19T21:06:41.255Z,20.68
2018-06-19T21:09:11.931Z,20.65
2018-06-19T21:11:42.629Z,20.66
2018-06-19T21:14:13.324Z,20.63
2018-06-19T21:16:43.993Z,20.60
2018-06-19T21:19:14.684Z,20.58
2018-06-19T21:21:45.429Z,20.54
2018-06-19T21:24:16.152Z,20.51
2018-06-19T21:26:46.864Z,20.48
2018-06-19T21:29:17.531Z,20.49
2018-06-19T21:31:48.221Z,20.49
2018-06-19T21:34:18.873Z,20.46
2018-06-19T21:36:49.536Z,20.45
2018-06-19T21:39:20.172Z,20.44
2018-06-19T21:41:51.139Z,20.41
2018-06-19T21:44:21.786Z,20.41
2018-06-19T21:46:52.435Z,20.40
2018-06-19T21:49:23.112Z,20.40
2018-06-19T21:51:53.837Z,20.36
2018-06-19T21:54:24.554Z,20.33
2018-06-19T21:56:55.268Z,20.34
2018-06-19T21:59:26.040Z,20.33
2018-06-19T22:01:56.782Z,20.35
2018-06-19T22:04:27.503Z,20.31
2018-06-19T22:06:58.160Z,20.27
2018-06-19T22:09:29.140Z,20.24
2018-06-19T22:11:59.845Z,20.24
2018-06-19T22:14:30.488Z,20.27
2018-06-19T22:17:01.220Z,20.25
2018-06-19T22:19:31.898Z,20.23
2018-06-19T22:22:02.629Z,20.23
2018-06-19T22:24:33.281Z,20.20
2018-06-19T22:27:03.971Z,20.18
2018-06-19T22:29:34.684Z,20.20
2018-06-19T22:32:05.353Z,20.23
2018-06-19T22:34:36.013Z,20.23
2018-06-19T22:37:06.882Z,20.23
2018-06-19T22:39:37.529Z,20.24
2018-06-19T22:42:08.324Z,20.25
2018-06-19T22:44:39.078Z,20.22
2018-06-19T22:47:09.789Z,20.19
2018-06-19T22:49:40.467Z,20.17
2018-06-19T22:52:11.236Z,20.12
2018-06-19T22:54:41.899Z,20.13
2018-06-19T22:57:12.591Z,20.13
2018-06-19T22:59:43.291Z,20.11
2018-06-19T23:02:13.950Z,20.10
2018-06-19T23:04:44.663Z,20.06
2018-06-19T23:07:15.381Z,20.04
2018-06-19T23:09:46.045Z,20.03
2018-06-19T23:12:16.729Z,20.05
2018-06-19T23:14:47.364Z,20.00
2018-06-19T23:17:18.019Z,19.96
2018-06-19T23:19:48.675Z,19.97
2018-06-19T23:22:19.924Z,20.00
2018-06-19T23:24:50.619Z,19.99
2018-06-19T23:27:21.352Z,19.99
2018-06-19T23:29:52.126Z,19.97
2018-06-19T23:32:22.801Z,19.98
2018-06-19T23:34:53.496Z,20.00
2018-06-19T23:37:24.161Z,20.00
2018-06-19T23:39:54.927Z,20.02
2018-06-19T23:42:25.757Z,20.03
2018-06-19T23:44:56.567Z,19.98
2018-06-19T23:47:27.247Z,19.95
2018-06-19T23:49:57.973Z,19.96
2018-06-19T23:52:28.804Z,19.93
2018-06-19T23:54:59.544Z,19.92
2018-06-19T23:57:30.438Z,19.92
